createdAt,value
2023-05-08T00:02:22.660Z,100465.63
2023-05-08T00:06:27.072Z,100465.66
2023-05-08T00:10:30.791Z,100469.13
2023-05-08T00:14:33.781Z,100461.97
2023-05-08T00:18:38.756Z,100453.03
2023-05-08T00:22:41.747Z,100466.94
2023-05-08T00:26:45.791Z,100466.00
2023-05-08T00:30:48.818Z,100468.56
2023-05-08T00:34:53.292Z,100458.00
2023-05-08T00:38:56.265Z,100456.22
2023-05-08T00:42:59.453Z,100457.94
2023-05-08T00:47:02.735Z,100459.59
2023-05-08T00:51:09.561Z,100450.75
2023-05-08T00:55:13.539Z,100463.00
2023-05-08T00:59:18.569Z,100471.75
2023-05-08T01:03:22.162Z,100469.13
2023-05-08T01:07:27.243Z,100456.00
2023-05-08T01:11:38.188Z,100465.63
2023-05-08T01:15:48.589Z,100466.41
2023-05-08T01:20:06.850Z,100471.66
2023-05-08T01:24:33.980Z,100471.56
2023-05-08T01:29:27.748Z,100471.44
2023-05-08T01:33:38.000Z,100462.59
2023-05-08T01:37:51.146Z,100469.50
2023-05-08T01:42:01.792Z,100478.25
2023-05-08T01:46:18.024Z,100478.28
2023-05-08T01:50:27.170Z,100476.41
2023-05-08T01:54:37.231Z,100476.34
2023-05-08T01:58:44.184Z,100479.88
2023-05-08T02:02:48.902Z,100482.50
2023-05-08T02:06:53.906Z,100487.78
2023-05-08T02:10:59.048Z,100480.75
2023-05-08T02:15:03.295Z,100490.47
2023-05-08T02:19:08.727Z,100485.13
2023-05-08T02:23:14.674Z,100489.41
2023-05-08T02:27:18.507Z,100484.91
2023-05-08T02:31:22.883Z,100497.97
2023-05-08T02:35:27.398Z,100492.66
2023-05-08T02:39:35.217Z,100493.44
2023-05-08T02:43:39.473Z,100495.09
2023-05-08T02:47:49.580Z,100491.56
2023-05-08T02:51:58.748Z,100496.81
2023-05-08T02:56:11.401Z,100494.00
2023-05-08T03:00:18.440Z,100502.66
2023-05-08T03:04:28.175Z,100509.59
2023-05-08T03:08:35.431Z,100506.94
2023-05-08T03:12:44.214Z,100510.44
2023-05-08T03:16:51.337Z,100507.72
2023-05-08T03:20:59.116Z,100510.34
2023-05-08T03:25:05.535Z,100501.59
2023-05-08T03:29:15.785Z,100514.66
2023-05-08T03:33:20.415Z,100510.19
2023-05-08T03:37:23.714Z,100524.06
2023-05-08T03:41:27.636Z,100520.56
2023-05-08T03:45:36.882Z,100524.88
2023-05-08T03:49:41.308Z,100529.22
2023-05-08T03:53:45.133Z,100520.41
2023-05-08T03:57:57.196Z,100511.56
2023-05-08T04:02:16.714Z,100522.06
2023-05-08T04:06:35.736Z,100524.69
2023-05-08T04:10:52.053Z,100529.03
2023-05-08T04:15:01.458Z,100530.81
2023-05-08T04:19:12.017Z,100538.63
2023-05-08T04:23:19.996Z,100528.94
2023-05-08T04:27:25.149Z,100528.94
2023-05-08T04:31:30.207Z,100538.63
2023-05-08T04:35:35.233Z,100550.88
2023-05-08T04:39:39.227Z,100555.16
2023-05-08T04:43:43.387Z,100556.94
2023-05-08T04:47:46.769Z,100552.66
2023-05-08T04:51:51.826Z,100558.84
2023-05-08T04:55:54.977Z,100561.53
2023-05-08T04:59:58.559Z,100565.94
2023-05-08T05:04:01.710Z,100558.91
2023-05-08T05:08:06.614Z,100566.88
2023-05-08T05:12:09.874Z,100571.34
2023-05-08T05:16:13.540Z,100574.94
2023-05-08T05:20:17.000Z,100582.25
2023-05-08T05:24:22.021Z,100573.63
2023-05-08T05:28:25.120Z,100569.50
2023-05-08T05:32:32.286Z,100577.66
2023-05-08T05:36:35.588Z,100571.00
2023-05-08T05:40:40.603Z,100573.16
2023-05-08T05:44:44.505Z,100569.13
2023-05-08T05:48:47.763Z,100582.56
2023-05-08T05:52:51.480Z,100584.72
2023-05-08T05:56:56.873Z,100578.84
2023-05-08T06:01:01.469Z,100586.13
2023-05-08T06:05:07.010Z,100589.16
2023-05-08T06:09:10.082Z,100584.19
2023-05-08T06:13:14.514Z,100584.56
2023-05-08T06:17:17.592Z,100586.47
2023-05-08T06:21:22.004Z,100594.59
2023-05-08T06:25:25.269Z,100592.06
2023-05-08T06:29:29.695Z,100599.09
2023-05-08T06:33:32.701Z,100600.84
2023-05-08T06:37:36.041Z,100602.69
2023-05-08T06:41:39.256Z,100606.38
2023-05-08T06:45:44.678Z,100599.44
2023-05-08T06:49:47.718Z,100601.41
2023-05-08T06:53:50.743Z,100607.72
2023-05-08T06:57:53.718Z,100607.81
2023-05-08T07:01:58.696Z,100601.78
2023-05-08T07:06:01.731Z,100602.03
2023-05-08T07:10:05.976Z,100599.63
2023-05-08T07:14:10.764Z,100603.19
2023-05-08T07:18:15.175Z,100599.75
2023-05-08T07:22:18.191Z,100590.97
2023-05-08T07:26:21.557Z,100597.19
2023-05-08T07:30:24.802Z,100597.16
2023-05-08T07:34:29.704Z,100602.41
2023-05-08T07:38:32.727Z,100595.47
2023-05-08T07:42:40.614Z,100606.03
2023-05-08T07:46:43.641Z,100604.31
2023-05-08T07:50:50.170Z,100603.50
2023-05-08T07:54:53.172Z,100610.59
2023-05-08T07:58:56.256Z,100609.78
2023-05-08T08:02:59.364Z,100599.19
2023-05-08T08:07:03.918Z,100603.59
2023-05-08T08:11:07.148Z,100600.91
2023-05-08T08:15:11.261Z,100600.91
2023-05-08T08:19:14.379Z,100605.34
2023-05-08T08:23:18.855Z,100591.22
2023-05-08T08:27:21.828Z,100598.28
2023-05-08T08:31:24.911Z,100596.53
2023-05-08T08:35:29.457Z,100600.03
2023-05-08T08:39:35.553Z,100590.31
2023-05-08T08:43:43.279Z,100594.75
2023-05-08T08:47:48.767Z,100596.47
2023-05-08T08:51:54.244Z,100588.47
2023-05-08T08:56:02.228Z,100588.41
2023-05-08T09:00:08.566Z,100590.13
2023-05-08T09:04:11.986Z,100585.69
2023-05-08T09:08:15.203Z,100581.13
2023-05-08T09:12:19.667Z,100588.16
2023-05-08T09:16:23.165Z,100581.09
2023-05-08T09:20:26.861Z,100583.72
2023-05-08T09:24:57.971Z,100588.13
2023-05-08T09:29:16.518Z,100581.09
2023-05-08T09:33:19.683Z,100577.56
2023-05-08T09:37:22.955Z,100581.16
2023-05-08T09:41:26.704Z,100581.09
2023-05-08T09:45:32.871Z,100566.91
2023-05-08T09:49:35.976Z,100573.97
2023-05-08T09:53:39.201Z,100570.38
2023-05-08T09:57:53.579Z,100574.75
2023-05-08T10:01:58.203Z,100569.38
2023-05-08T10:06:13.496Z,100563.09
2023-05-08T10:10:26.217Z,100563.06
2023-05-08T10:14:29.182Z,100552.38
2023-05-08T10:18:36.604Z,100558.44
2023-05-08T10:22:44.416Z,100548.69
2023-05-08T10:27:07.126Z,100537.06
2023-05-08T10:31:13.511Z,100532.47
2023-05-08T10:35:18.178Z,100531.63
2023-05-08T10:39:22.743Z,100521.84
2023-05-08T10:43:26.080Z,100519.94
2023-05-08T10:47:34.593Z,100524.28
2023-05-08T10:51:45.394Z,100509.97
2023-05-08T10:55:52.266Z,100500.00
2023-05-08T10:59:55.297Z,100504.19
2023-05-08T11:03:58.428Z,100486.38
2023-05-08T11:08:02.979Z,100495.22
2023-05-08T11:12:09.591Z,100494.22
2023-05-08T11:16:12.729Z,100492.34
2023-05-08T11:20:15.917Z,100491.31
2023-05-08T11:24:20.625Z,100485.00
2023-05-08T11:28:23.833Z,100479.66
2023-05-08T11:32:58.013Z,100475.91
2023-05-08T11:37:04.078Z,100475.88
2023-05-08T11:41:11.273Z,100472.34
2023-05-08T11:45:15.232Z,100474.03
2023-05-08T11:49:24.660Z,100467.69
2023-05-08T11:53:30.529Z,100468.47
2023-05-08T11:57:35.131Z,100473.78
2023-05-08T12:01:38.437Z,100463.91
2023-05-08T12:05:42.006Z,100455.84
2023-05-08T12:09:45.028Z,100451.47
2023-05-08T12:13:51.909Z,100463.03
2023-05-08T12:18:02.701Z,100455.72
2023-05-08T12:22:05.826Z,100461.81
2023-05-08T12:26:10.041Z,100452.59
2023-05-08T12:30:17.152Z,100455.16
2023-05-08T12:34:21.455Z,100453.34
2023-05-08T12:38:27.395Z,100453.06
2023-05-08T12:42:42.977Z,100458.47
2023-05-08T12:46:52.807Z,100459.28
2023-05-08T12:50:56.100Z,100442.28
2023-05-08T12:54:59.221Z,100446.59
2023-05-08T12:59:02.214Z,100430.63
2023-05-08T13:03:07.756Z,100429.53
2023-05-08T13:07:10.797Z,100430.09
2023-05-08T13:11:13.889Z,100430.81
2023-05-08T13:15:17.071Z,100431.72
2023-05-08T13:19:21.502Z,100420.13
2023-05-08T13:23:24.695Z,100417.44
2023-05-08T13:27:27.776Z,100422.09
2023-05-08T13:31:30.966Z,100406.75
2023-05-08T13:35:36.210Z,100400.28
2023-05-08T13:39:39.204Z,100391.53
2023-05-08T13:43:42.512Z,100393.50
2023-05-08T13:47:46.508Z,100392.66
2023-05-08T13:51:56.472Z,100398.03
2023-05-08T13:56:00.024Z,100389.91
2023-05-08T14:00:04.404Z,100393.44
2023-05-08T14:04:10.629Z,100385.34
2023-05-08T14:08:15.238Z,100384.59
2023-05-08T14:12:18.263Z,100383.69
2023-05-08T14:16:21.508Z,100380.09
2023-05-08T14:20:24.526Z,100379.19
2023-05-08T14:24:29.039Z,100377.19
2023-05-08T14:28:32.064Z,100382.44
2023-05-08T14:32:35.455Z,100387.75
2023-05-08T14:36:38.581Z,100383.28
2023-05-08T14:40:43.023Z,100383.31
2023-05-08T14:44:46.089Z,100381.59
2023-05-08T14:48:49.157Z,100382.44
2023-05-08T14:52:52.187Z,100380.78
2023-05-08T14:56:56.692Z,100386.03
2023-05-08T15:00:59.741Z,100384.41
2023-05-08T15:05:07.961Z,100373.84
2023-05-08T15:09:11.427Z,100380.06
2023-05-08T15:13:15.918Z,100378.28
2023-05-08T15:17:19.102Z,100378.31
2023-05-08T15:21:26.195Z,100374.81
2023-05-08T15:25:29.224Z,100366.78
2023-05-08T15:29:33.791Z,100365.13
2023-05-08T15:33:36.961Z,100372.34
2023-05-08T15:37:40.054Z,100372.34
2023-05-08T15:41:43.043Z,100365.19
2023-05-08T15:45:47.512Z,100361.63
2023-05-08T15:49:50.488Z,100358.94
2023-05-08T15:53:53.624Z,100356.34
2023-05-08T15:57:56.613Z,100357.38
2023-05-08T16:02:01.063Z,100354.84
2023-05-08T16:06:04.248Z,100351.41
2023-05-08T16:10:08.749Z,100352.34
2023-05-08T16:14:11.740Z,100352.41
2023-05-08T16:18:16.384Z,100348.72
2023-05-08T16:22:19.361Z,100354.84
2023-05-08T16:26:22.715Z,100352.25
2023-05-08T16:30:25.705Z,100353.25
2023-05-08T16:34:30.435Z,100349.72
2023-05-08T16:38:33.430Z,100352.53
2023-05-08T16:42:37.103Z,100353.47
2023-05-08T16:46:40.140Z,100357.22
2023-05-08T16:50:44.623Z,100359.25
2023-05-08T16:54:47.619Z,100362.94
2023-05-08T16:58:50.718Z,100361.25
2023-05-08T17:02:53.806Z,100366.69
2023-05-08T17:07:00.000Z,100370.38
2023-05-08T17:11:03.279Z,100369.66
2023-05-08T17:15:07.472Z,100380.44
2023-05-08T17:19:10.607Z,100388.50
2023-05-08T17:23:15.013Z,100381.56
2023-05-08T17:27:18.781Z,100390.59
2023-05-08T17:31:21.849Z,100396.13
2023-05-08T17:35:25.352Z,100390.88
2023-05-08T17:39:29.914Z,100399.91
2023-05-08T17:43:32.889Z,100400.03
2023-05-08T17:47:37.631Z,100396.66
2023-05-08T17:51:41.202Z,100405.66
2023-05-08T17:55:45.625Z,100422.66
2023-05-08T17:59:48.605Z,100431.66
2023-05-08T18:03:54.000Z,100431.81
2023-05-08T18:07:57.157Z,100439.88
2023-05-08T18:12:02.635Z,100441.84
2023-05-08T18:16:05.819Z,100450.88
2023-05-08T18:20:10.117Z,100452.81
2023-05-08T18:24:13.099Z,100449.34
2023-05-08T18:28:17.514Z,100463.63
2023-05-08T18:32:20.512Z,100472.56
2023-05-08T18:36:23.835Z,100471.78
2023-05-08T18:40:26.850Z,100487.81
2023-05-08T18:44:31.225Z,100491.44
2023-05-08T18:48:34.172Z,100491.53
2023-05-08T18:52:37.179Z,100492.50
2023-05-08T18:56:40.214Z,100488.16
2023-05-08T19:00:44.733Z,100489.97
2023-05-08T19:04:47.736Z,100488.25
2023-05-08T19:08:52.169Z,100491.91
2023-05-08T19:12:55.367Z,100501.66
2023-05-08T19:16:59.909Z,100512.31
2023-05-08T19:21:03.116Z,100519.41
2023-05-08T19:25:07.037Z,100521.16
2023-05-08T19:29:10.010Z,100522.13
2023-05-08T19:33:14.572Z,100517.75
2023-05-08T19:37:17.802Z,100523.94
2023-05-08T19:41:21.039Z,100516.03
2023-05-08T19:45:24.060Z,100515.16
2023-05-08T19:49:28.594Z,100516.94
2023-05-08T19:53:31.574Z,100524.06
2023-05-08T19:57:34.644Z,100526.72
2023-05-08T20:01:37.767Z,100524.97
2023-05-08T20:05:42.228Z,100517.91
2023-05-08T20:09:45.462Z,100521.47
2023-05-08T20:13:48.509Z,100515.31
2023-05-08T20:17:51.551Z,100517.94
2023-05-08T20:21:56.261Z,100522.34
2023-05-08T20:25:59.297Z,100525.84
2023-05-08T20:30:02.430Z,100517.91
2023-05-08T20:34:05.428Z,100525.84
2023-05-08T20:38:10.066Z,100532.00
2023-05-08T20:42:13.127Z,100526.72
2023-05-08T20:46:16.408Z,100531.97
2023-05-08T20:50:19.417Z,100530.22
2023-05-08T20:54:23.859Z,100535.47
2023-05-08T20:58:26.924Z,100533.69
2023-05-08T21:02:30.203Z,100524.00
2023-05-08T21:06:33.207Z,100523.06
2023-05-08T21:10:37.694Z,100515.13
2023-05-08T21:14:40.733Z,100531.88
2023-05-08T21:18:43.791Z,100531.84
2023-05-08T21:22:47.136Z,100530.03
2023-05-08T21:26:52.181Z,100532.66
2023-05-08T21:30:55.194Z,100540.47
2023-05-08T21:34:58.247Z,100540.47
2023-05-08T21:39:01.405Z,100544.88
2023-05-08T21:43:05.910Z,100547.47
2023-05-08T21:47:08.926Z,100551.84
2023-05-08T21:51:12.066Z,100549.16
2023-05-08T21:55:15.212Z,100547.38
2023-05-08T21:59:20.309Z,100552.59
2023-05-08T22:03:23.416Z,100551.72
2023-05-08T22:07:27.073Z,100556.91
2023-05-08T22:11:31.537Z,100562.16
2023-05-08T22:15:36.233Z,100563.00
2023-05-08T22:19:39.524Z,100550.63
2023-05-08T22:23:42.755Z,100548.81
2023-05-08T22:27:46.444Z,100555.81
2023-05-08T22:31:51.030Z,100564.56
2023-05-08T22:35:54.010Z,100560.06
2023-05-08T22:39:57.291Z,100556.50
2023-05-08T22:44:00.650Z,100563.53
2023-05-08T22:48:05.511Z,100559.06
2023-05-08T22:52:09.137Z,100559.91
2023-05-08T22:56:12.430Z,100562.47
2023-05-08T23:00:16.487Z,100561.53
2023-05-08T23:04:21.591Z,100556.25
2023-05-08T23:08:24.678Z,100551.78
2023-05-08T23:12:27.726Z,100563.22
2023-05-08T23:16:30.914Z,100557.00
2023-05-08T23:20:35.489Z,100557.78
2023-05-08T23:24:38.868Z,100548.91
2023-05-08T23:28:41.911Z,100557.63
2023-05-08T23:32:44.995Z,100554.94
2023-05-08T23:36:50.845Z,100544.28
2023-05-08T23:40:54.017Z,100540.72
2023-05-08T23:44:57.255Z,100542.47
2023-05-08T23:49:00.345Z,100542.41
2023-05-08T23:53:04.854Z,100538.91
2023-05-08T23:57:07.887Z,100529.09
